Avalon, Pennsylvania
Current Conditions -  °F | °C
As of 5:02 PM on Thursday 27 Nov 2014 (Local Time) from KPIT Reporting Station
Overcast Overcast  
Wind Chill: 21°   Ceiling: 4400
Heat Index: 30°   Visibility: 8mi
Dew Point: 26°   Wind: 12mph
Humidity: 85%   Direction: 290°WNW
Pressure: 30.14"   Gusts: NA
Location:  40.5069°N, 80.0715°W
Report Text: KPIT 272202Z 29010KT 8SM FEW014 BKN044 OVC075 M01/M03 A3014 RMK AO2 SNE01 P0000 T10111033
Loading
Personal Weather Stations






























Interactive Weather Map New forecast layout! Learn more

10-Day Weather Forecast

Advertisements
Track Severe Weather on mobile